Time;durP1;ratioP1;P1;durP2;ratioP2;P2;SDS_P1;SDS_P2;PMS_P1;PMS_P2;Temp;Humidity;BMP_temperature;BMP_pressure;BME280_temperature;BME280_humidity;BME280_pressure;Samples;Min_cycle;Max_cycle;Signal;HPM_P1;HPM_P2
2021/10/17 00:02:24;;;;;;;33.88;14.65;;;;;;;;;;5070561;28;20027;-58
2021/10/17 00:04:49;;;;;;;34.17;14.20;;;;;;;;;;5069934;28;20013;-58
2021/10/17 00:07:15;;;;;;;29.98;15.15;;;;;;;;;;5069549;28;20029;-58
2021/10/17 00:09:41;;;;;;;30.52;13.63;;;;;;;;;;5073086;28;20522;-58
2021/10/17 00:12:08;;;;;;;30.27;14.65;;;;;;;;;;5070742;28;20024;-57
2021/10/17 00:14:34;;;;;;;29.08;12.45;;;;;;;;;;5073583;28;20074;-58
2021/10/17 00:17:01;;;;;;;30.98;14.07;;;;;;;;;;5073230;28;20036;-58
2021/10/17 00:19:26;;;;;;;34.05;14.10;;;;;;;;;;5069475;28;20028;-57
2021/10/17 00:21:52;;;;;;;34.78;15.65;;;;;;;;;;5069845;28;20477;-57
2021/10/17 00:24:17;;;;;;;29.17;14.23;;;;;;;;;;5070222;28;20066;-57
2021/10/17 00:26:43;;;;;;;34.47;14.73;;;;;;;;;;5069793;28;20090;-57
2021/10/17 00:29:08;;;;;;;32.38;14.40;;;;;;;;;;5068062;28;20028;-57
2021/10/17 00:31:33;;;;;;;38.38;15.90;;;;;;;;;;5070400;28;20044;-57
2021/10/17 00:33:59;;;;;;;36.70;16.35;;;;;;;;;;5069932;28;20044;-57
2021/10/17 00:36:27;;;;;;;37.83;17.48;;;;;;;;;;5069383;28;20472;-57
2021/10/17 00:38:52;;;;;;;41.40;17.35;;;;;;;;;;5070103;28;20416;-58
2021/10/17 00:41:18;;;;;;;43.88;17.75;;;;;;;;;;5070380;28;20040;-58
2021/10/17 00:43:44;;;;;;;46.10;18.20;;;;;;;;;;5070997;28;20028;-57
2021/10/17 00:46:17;;;;;;;47.92;18.10;;;;;;;;;;5070452;28;20036;-58
2021/10/17 00:48:43;;;;;;;38.97;17.80;;;;;;;;;;5070743;28;20031;-58
2021/10/17 00:51:09;;;;;;;41.15;17.60;;;;;;;;;;5070458;28;20032;-57
2021/10/17 00:53:35;;;;;;;39.97;18.27;;;;;;;;;;5070702;28;20024;-57
2021/10/17 00:56:01;;;;;;;36.35;16.02;;;;;;;;;;5069061;28;20039;-57
2021/10/17 00:58:26;;;;;;;37.65;17.58;;;;;;;;;;5070228;28;20213;-57
2021/10/17 01:00:52;;;;;;;38.90;17.45;;;;;;;;;;5070223;28;20033;-57
2021/10/17 01:03:17;;;;;;;40.60;18.00;;;;;;;;;;5072956;28;20031;-57
2021/10/17 01:05:42;;;;;;;41.03;17.58;;;;;;;;;;5069249;28;20030;-57
2021/10/17 01:08:08;;;;;;;41.00;16.90;;;;;;;;;;5068824;28;20028;-57
2021/10/17 01:10:33;;;;;;;39.63;17.30;;;;;;;;;;5069489;28;20032;-57
2021/10/17 01:12:59;;;;;;;39.08;16.48;;;;;;;;;;5071823;28;20099;-57
2021/10/17 01:15:24;;;;;;;39.70;17.35;;;;;;;;;;5068546;28;20393;-57
2021/10/17 01:17:49;;;;;;;39.95;17.77;;;;;;;;;;5069369;28;20502;-57
2021/10/17 01:20:15;;;;;;;40.17;17.77;;;;;;;;;;5073164;28;20032;-57
2021/10/17 01:22:41;;;;;;;42.72;17.48;;;;;;;;;;5067661;28;20029;-57
2021/10/17 01:25:08;;;;;;;41.58;17.65;;;;;;;;;;5070924;28;20324;-57
2021/10/17 01:27:33;;;;;;;45.60;21.25;;;;;;;;;;5066480;28;20032;-58
2021/10/17 01:29:59;;;;;;;47.35;21.85;;;;;;;;;;5068795;28;20021;-57
2021/10/17 01:32:24;;;;;;;41.15;19.95;;;;;;;;;;5066326;28;20604;-58
2021/10/17 01:34:50;;;;;;;43.38;19.85;;;;;;;;;;5070893;28;20043;-58
2021/10/17 01:37:15;;;;;;;40.28;18.83;;;;;;;;;;5070258;28;20045;-58
2021/10/17 01:39:43;;;;;;;40.08;19.10;;;;;;;;;;5072924;28;20024;-58
2021/10/17 01:42:09;;;;;;;38.78;18.08;;;;;;;;;;5070704;28;20212;-58
2021/10/17 01:44:36;;;;;;;41.50;18.40;;;;;;;;;;5069137;28;20028;-58
2021/10/17 01:47:04;;;;;;;36.88;19.20;;;;;;;;;;5066942;28;20044;-58
2021/10/17 01:49:30;;;;;;;36.72;17.10;;;;;;;;;;5071064;28;20097;-58
2021/10/17 01:51:55;;;;;;;38.67;18.33;;;;;;;;;;5068294;28;20228;-58
2021/10/17 01:54:21;;;;;;;43.47;18.17;;;;;;;;;;5067449;28;20099;-58
2021/10/17 01:56:46;;;;;;;33.05;16.38;;;;;;;;;;5070704;28;20052;-58
2021/10/17 01:59:12;;;;;;;36.95;17.88;;;;;;;;;;5066007;28;20428;-59
2021/10/17 02:01:37;;;;;;;36.38;17.17;;;;;;;;;;5067743;28;20036;-58
2021/10/17 02:04:04;;;;;;;33.70;16.80;;;;;;;;;;5068702;28;20058;-58
2021/10/17 02:06:30;;;;;;;33.28;16.63;;;;;;;;;;5067693;28;20028;-58
2021/10/17 02:08:56;;;;;;;33.67;17.13;;;;;;;;;;5069625;28;20349;-58
2021/10/17 02:11:22;;;;;;;34.03;17.42;;;;;;;;;;5068661;28;20040;-58
2021/10/17 02:13:47;;;;;;;38.40;17.83;;;;;;;;;;5070534;28;20028;-58
2021/10/17 02:16:12;;;;;;;39.20;17.27;;;;;;;;;;5067711;28;20403;-58
2021/10/17 02:18:38;;;;;;;33.63;16.35;;;;;;;;;;5072938;28;20115;-58
2021/10/17 02:21:03;;;;;;;32.85;16.17;;;;;;;;;;5074167;28;20427;-58
2021/10/17 02:23:29;;;;;;;33.03;15.77;;;;;;;;;;5067574;28;20050;-58
2021/10/17 02:25:55;;;;;;;35.30;16.63;;;;;;;;;;5065437;28;20031;-57
2021/10/17 02:28:20;;;;;;;31.88;15.95;;;;;;;;;;5065527;28;20020;-58
2021/10/17 02:30:46;;;;;;;37.83;16.92;;;;;;;;;;5068508;28;20922;-58
2021/10/17 02:33:11;;;;;;;30.75;15.35;;;;;;;;;;5070212;28;20032;-58
2021/10/17 02:35:37;;;;;;;30.05;15.55;;;;;;;;;;5065900;28;20380;-58
2021/10/17 02:38:02;;;;;;;28.08;14.38;;;;;;;;;;5066739;28;20040;-58
2021/10/17 02:40:28;;;;;;;26.95;14.40;;;;;;;;;;5069134;28;20394;-58
2021/10/17 02:42:53;;;;;;;30.30;15.25;;;;;;;;;;5067170;28;20024;-58
2021/10/17 02:45:19;;;;;;;29.23;15.27;;;;;;;;;;5067293;28;20021;-58
2021/10/17 02:47:44;;;;;;;35.05;17.13;;;;;;;;;;5066331;28;20082;-58
2021/10/17 02:50:10;;;;;;;30.85;15.88;;;;;;;;;;5070797;28;20032;-58
2021/10/17 02:52:35;;;;;;;35.90;17.02;;;;;;;;;;5068796;28;20403;-57
2021/10/17 02:55:00;;;;;;;32.88;15.52;;;;;;;;;;5067362;28;20029;-57
2021/10/17 02:57:26;;;;;;;33.22;15.98;;;;;;;;;;5068485;28;20051;-57
2021/10/17 02:59:51;;;;;;;34.88;15.73;;;;;;;;;;5068132;28;20035;-57
2021/10/17 03:02:17;;;;;;;30.33;15.35;;;;;;;;;;5072281;28;20466;-57
2021/10/17 03:04:42;;;;;;;33.75;16.23;;;;;;;;;;5068780;28;20095;-57
2021/10/17 03:07:08;;;;;;;34.97;17.23;;;;;;;;;;5066788;28;20025;-58
2021/10/17 03:09:34;;;;;;;34.70;17.25;;;;;;;;;;5066910;28;20035;-57
2021/10/17 03:11:59;;;;;;;37.03;17.73;;;;;;;;;;5066077;28;20025;-57
2021/10/17 03:14:24;;;;;;;34.45;17.27;;;;;;;;;;5067458;28;20029;-57
2021/10/17 03:16:50;;;;;;;38.50;18.38;;;;;;;;;;5069583;28;20110;-57
2021/10/17 03:19:15;;;;;;;35.10;18.15;;;;;;;;;;5065379;28;20032;-57
2021/10/17 03:21:45;;;;;;;37.83;18.25;;;;;;;;;;5066939;28;20043;-57
2021/10/17 03:24:11;;;;;;;38.78;18.33;;;;;;;;;;5068404;28;20020;-57
2021/10/17 03:26:36;;;;;;;34.85;17.58;;;;;;;;;;5071793;28;20037;-57
2021/10/17 03:29:02;;;;;;;36.40;16.50;;;;;;;;;;5066992;28;20590;-57
2021/10/17 03:31:27;;;;;;;37.95;18.50;;;;;;;;;;5065537;28;20037;-57
2021/10/17 03:33:53;;;;;;;36.28;17.30;;;;;;;;;;5067404;28;20032;-57
2021/10/17 03:36:18;;;;;;;37.25;18.20;;;;;;;;;;5065436;28;20029;-57
2021/10/17 03:38:43;;;;;;;36.97;18.52;;;;;;;;;;5065962;28;20110;-57
2021/10/17 03:41:11;;;;;;;42.50;18.45;;;;;;;;;;5067587;28;20032;-57
2021/10/17 03:43:37;;;;;;;39.45;19.67;;;;;;;;;;5067617;28;20104;-59
2021/10/17 03:46:02;;;;;;;40.88;19.80;;;;;;;;;;5066366;28;20021;-59
2021/10/17 03:48:27;;;;;;;41.17;20.17;;;;;;;;;;5066845;28;20124;-59
2021/10/17 03:50:53;;;;;;;40.97;20.77;;;;;;;;;;5069638;28;20138;-59
2021/10/17 03:53:19;;;;;;;39.70;20.25;;;;;;;;;;5066310;28;20032;-59
2021/10/17 03:55:44;;;;;;;46.92;20.27;;;;;;;;;;5068772;28;20613;-59
2021/10/17 03:58:10;;;;;;;42.15;19.55;;;;;;;;;;5064218;28;20028;-57
2021/10/17 04:00:35;;;;;;;40.13;20.27;;;;;;;;;;5064907;28;20055;-57
2021/10/17 04:03:01;;;;;;;41.28;20.38;;;;;;;;;;5069935;28;20540;-57
2021/10/17 04:05:27;;;;;;;40.72;19.13;;;;;;;;;;5068942;28;20371;-57
2021/10/17 04:07:52;;;;;;;42.60;20.40;;;;;;;;;;5065000;28;20032;-57
2021/10/17 04:10:18;;;;;;;46.50;22.15;;;;;;;;;;5066929;28;20058;-58
2021/10/17 04:12:43;;;;;;;52.70;24.80;;;;;;;;;;5067779;28;20035;-58
2021/10/17 04:15:09;;;;;;;54.33;26.15;;;;;;;;;;5065144;28;20489;-58
2021/10/17 04:17:35;;;;;;;44.53;22.42;;;;;;;;;;5065902;28;20028;-58
2021/10/17 04:20:00;;;;;;;42.28;20.63;;;;;;;;;;5066088;28;20478;-58
2021/10/17 04:22:29;;;;;;;45.70;21.63;;;;;;;;;;5069297;28;20199;-59
2021/10/17 04:24:54;;;;;;;40.85;19.95;;;;;;;;;;5070160;28;20320;-58
2021/10/17 04:27:20;;;;;;;40.55;19.52;;;;;;;;;;5068147;28;20039;-58
2021/10/17 04:29:45;;;;;;;45.92;20.95;;;;;;;;;;5069223;28;20055;-58
2021/10/17 04:32:10;;;;;;;39.88;21.13;;;;;;;;;;5072412;28;20063;-58
2021/10/17 04:34:36;;;;;;;41.53;20.58;;;;;;;;;;5069329;28;20052;-59
2021/10/17 04:37:03;;;;;;;39.03;20.88;;;;;;;;;;5070263;28;20055;-58
2021/10/17 04:39:29;;;;;;;37.22;18.17;;;;;;;;;;5072964;28;20029;-58
2021/10/17 04:41:55;;;;;;;37.20;19.08;;;;;;;;;;5069294;28;20020;-58
2021/10/17 04:44:20;;;;;;;34.33;18.25;;;;;;;;;;5071093;28;20099;-58
2021/10/17 04:46:46;;;;;;;35.22;18.70;;;;;;;;;;5066941;28;20043;-58
2021/10/17 04:49:11;;;;;;;31.75;17.67;;;;;;;;;;5067533;28;20029;-58
2021/10/17 04:51:37;;;;;;;32.45;17.45;;;;;;;;;;5068239;28;20032;-59
2021/10/17 04:54:02;;;;;;;35.67;19.10;;;;;;;;;;5072101;28;20024;-58
2021/10/17 04:56:28;;;;;;;37.88;18.98;;;;;;;;;;5067106;28;20044;-58
2021/10/17 04:58:53;;;;;;;42.35;20.27;;;;;;;;;;5070150;28;20051;-58
2021/10/17 05:01:19;;;;;;;42.13;19.45;;;;;;;;;;5071247;28;20402;-58
2021/10/17 05:03:44;;;;;;;36.70;19.15;;;;;;;;;;5066758;28;21103;-58
2021/10/17 05:06:12;;;;;;;43.30;21.02;;;;;;;;;;5070827;28;20074;-58
2021/10/17 05:08:38;;;;;;;42.92;20.27;;;;;;;;;;5070003;28;20028;-60
2021/10/17 05:11:04;;;;;;;42.65;20.42;;;;;;;;;;5068972;28;20548;-59
2021/10/17 05:13:30;;;;;;;41.13;19.88;;;;;;;;;;5067075;28;20020;-59
2021/10/17 05:15:55;;;;;;;42.88;21.40;;;;;;;;;;5071225;28;20127;-59
2021/10/17 05:18:21;;;;;;;43.67;20.23;;;;;;;;;;5068403;28;20550;-59
2021/10/17 05:20:46;;;;;;;39.03;19.90;;;;;;;;;;5069511;28;20086;-59
2021/10/17 05:23:13;;;;;;;42.58;20.23;;;;;;;;;;5067474;28;20402;-60
2021/10/17 05:25:40;;;;;;;38.20;19.02;;;;;;;;;;5069164;28;20036;-60
2021/10/17 05:28:06;;;;;;;41.00;18.75;;;;;;;;;;5068597;28;20033;-60
2021/10/17 05:30:33;;;;;;;36.28;18.80;;;;;;;;;;5072793;28;20417;-58
2021/10/17 05:32:59;;;;;;;39.58;18.88;;;;;;;;;;5069668;28;20032;-59
2021/10/17 05:35:25;;;;;;;37.53;19.58;;;;;;;;;;5068296;28;20063;-59
2021/10/17 05:37:50;;;;;;;41.58;19.52;;;;;;;;;;5072972;28;20055;-59
2021/10/17 05:40:15;;;;;;;36.38;18.45;;;;;;;;;;5068800;28;20067;-60
2021/10/17 05:42:41;;;;;;;38.83;18.05;;;;;;;;;;5071344;28;20027;-60
2021/10/17 05:45:07;;;;;;;38.40;19.50;;;;;;;;;;5068003;28;20433;-59
2021/10/17 05:47:32;;;;;;;45.95;22.17;;;;;;;;;;5068315;28;20511;-59
2021/10/17 05:49:58;;;;;;;41.78;20.48;;;;;;;;;;5069760;28;20032;-59
2021/10/17 05:52:23;;;;;;;35.67;17.98;;;;;;;;;;5067986;28;20035;-59
2021/10/17 05:54:49;;;;;;;36.42;18.10;;;;;;;;;;5068572;28;20017;-59
2021/10/17 05:57:14;;;;;;;38.60;18.73;;;;;;;;;;5067711;28;20111;-61
2021/10/17 05:59:39;;;;;;;31.08;16.75;;;;;;;;;;5067681;28;20024;-59
2021/10/17 06:02:05;;;;;;;32.30;15.88;;;;;;;;;;5071679;28;20039;-59
2021/10/17 06:04:30;;;;;;;37.42;18.60;;;;;;;;;;5068113;28;20021;-59
2021/10/17 06:06:56;;;;;;;34.33;17.42;;;;;;;;;;5068406;28;20510;-59
2021/10/17 06:09:22;;;;;;;34.85;17.73;;;;;;;;;;5068021;28;20036;-59
2021/10/17 06:11:47;;;;;;;33.38;17.10;;;;;;;;;;5069868;28;20481;-60
2021/10/17 06:14:12;;;;;;;44.85;20.30;;;;;;;;;;5067593;28;20025;-59
2021/10/17 06:16:38;;;;;;;38.10;18.77;;;;;;;;;;5068633;28;20028;-60
2021/10/17 06:19:03;;;;;;;33.17;16.30;;;;;;;;;;5065277;28;20039;-59
2021/10/17 06:21:29;;;;;;;31.13;15.07;;;;;;;;;;5066666;28;20031;-59
2021/10/17 06:23:54;;;;;;;28.75;14.45;;;;;;;;;;5068013;28;20158;-59
2021/10/17 06:26:20;;;;;;;33.85;16.48;;;;;;;;;;5067042;28;20500;-59
2021/10/17 06:28:46;;;;;;;30.20;14.38;;;;;;;;;;5065530;28;20021;-58
2021/10/17 06:31:11;;;;;;;25.10;13.00;;;;;;;;;;5068022;28;20505;-59
2021/10/17 06:33:36;;;;;;;23.83;12.70;;;;;;;;;;5067817;28;20028;-59
2021/10/17 06:36:02;;;;;;;25.92;13.00;;;;;;;;;;5064909;28;20039;-59
2021/10/17 06:38:27;;;;;;;28.10;12.95;;;;;;;;;;5068005;28;20031;-58
2021/10/17 06:40:53;;;;;;;30.30;13.80;;;;;;;;;;5066140;28;20146;-58
2021/10/17 06:43:18;;;;;;;35.40;15.90;;;;;;;;;;5066192;28;20392;-58
2021/10/17 06:45:44;;;;;;;32.72;14.60;;;;;;;;;;5066861;28;20028;-58
2021/10/17 06:48:09;;;;;;;30.80;13.38;;;;;;;;;;5069935;28;20066;-58
2021/10/17 06:50:34;;;;;;;25.95;12.38;;;;;;;;;;5066913;28;20032;-58
2021/10/17 06:53:00;;;;;;;25.48;11.68;;;;;;;;;;5067885;28;20036;-58
2021/10/17 06:55:25;;;;;;;38.88;17.15;;;;;;;;;;5067827;28;20040;-59
2021/10/17 06:57:51;;;;;;;25.50;12.35;;;;;;;;;;5067982;28;20028;-58
2021/10/17 07:00:16;;;;;;;23.73;11.73;;;;;;;;;;5067563;28;20036;-58
2021/10/17 07:02:42;;;;;;;23.80;12.40;;;;;;;;;;5067009;28;20032;-58
2021/10/17 07:05:07;;;;;;;32.47;16.00;;;;;;;;;;5068264;28;20036;-59
2021/10/17 07:07:32;;;;;;;31.23;16.33;;;;;;;;;;5062471;28;20055;-59
2021/10/17 07:09:58;;;;;;;28.02;14.30;;;;;;;;;;5072144;28;20075;-58
2021/10/17 07:12:24;;;;;;;27.98;13.60;;;;;;;;;;5067219;28;20028;-59
2021/10/17 07:14:52;;;;;;;28.58;12.48;;;;;;;;;;5067317;28;20048;-60
2021/10/17 07:17:18;;;;;;;27.63;13.02;;;;;;;;;;5063644;28;20032;-60
2021/10/17 07:19:43;;;;;;;35.50;16.25;;;;;;;;;;5068996;28;20028;-59
2021/10/17 07:22:09;;;;;;;34.58;16.85;;;;;;;;;;5071243;28;20044;-58
2021/10/17 07:24:34;;;;;;;31.27;14.95;;;;;;;;;;5067332;28;20054;-59
2021/10/17 07:26:59;;;;;;;46.15;20.85;;;;;;;;;;5066618;28;20032;-59
2021/10/17 07:29:25;;;;;;;97.38;35.65;;;;;;;;;;5068467;28;20024;-59
2021/10/17 07:31:51;;;;;;;125.00;42.97;;;;;;;;;;5065740;28;20048;-58
2021/10/17 07:34:16;;;;;;;97.18;37.15;;;;;;;;;;5069824;28;20035;-59
2021/10/17 07:36:42;;;;;;;63.97;27.67;;;;;;;;;;5068486;28;20028;-59
2021/10/17 07:39:10;;;;;;;55.83;24.85;;;;;;;;;;5067216;28;20378;-59
2021/10/17 07:41:36;;;;;;;52.10;24.02;;;;;;;;;;5070284;28;20025;-59
2021/10/17 07:44:01;;;;;;;52.00;25.65;;;;;;;;;;5067367;28;20032;-59
2021/10/17 07:46:27;;;;;;;47.35;23.50;;;;;;;;;;5066874;28;20104;-59
2021/10/17 07:48:56;;;;;;;49.65;25.15;;;;;;;;;;5065043;28;20506;-59
2021/10/17 07:51:22;;;;;;;;;;;;;;;;;;5067839;28;20374;-60
2021/10/17 07:53:47;;;;;;;44.85;21.75;;;;;;;;;;5066053;28;19912;-59
2021/10/17 07:56:12;;;;;;;48.42;21.73;;;;;;;;;;5070126;28;20036;-58
2021/10/17 07:58:38;;;;;;;46.47;21.88;;;;;;;;;;5071404;28;20397;-59
2021/10/17 08:01:03;;;;;;;43.13;21.05;;;;;;;;;;5071175;28;20031;-59
2021/10/17 08:03:29;;;;;;;41.63;21.33;;;;;;;;;;5070130;28;20127;-58
2021/10/17 08:05:54;;;;;;;50.03;22.77;;;;;;;;;;5070124;28;20036;-58
2021/10/17 08:08:20;;;;;;;47.25;23.13;;;;;;;;;;5069727;28;20024;-59
2021/10/17 08:10:45;;;;;;;42.85;21.75;;;;;;;;;;5069538;28;20024;-58
2021/10/17 08:13:10;;;;;;;45.47;20.60;;;;;;;;;;5070318;28;20105;-59
2021/10/17 08:15:36;;;;;;;61.50;26.85;;;;;;;;;;5069277;28;20028;-58
2021/10/17 08:18:01;;;;;;;99.93;37.83;;;;;;;;;;5070165;28;20412;-59
2021/10/17 08:20:27;;;;;;;95.18;38.13;;;;;;;;;;5071157;28;20089;-58
2021/10/17 08:22:52;;;;;;;68.40;31.67;;;;;;;;;;5074883;28;20046;-60
2021/10/17 08:25:18;;;;;;;51.78;23.83;;;;;;;;;;5068818;28;20020;-59
2021/10/17 08:27:43;;;;;;;43.00;21.55;;;;;;;;;;5068097;28;20040;-60
2021/10/17 08:30:10;;;;;;;35.63;19.58;;;;;;;;;;5072189;28;20037;-58
2021/10/17 08:32:36;;;;;;;39.42;20.15;;;;;;;;;;5069550;28;20024;-58
2021/10/17 08:35:01;;;;;;;36.75;18.50;;;;;;;;;;5068626;28;20028;-60
2021/10/17 08:37:27;;;;;;;32.47;17.70;;;;;;;;;;5067407;28;20052;-60
2021/10/17 08:39:53;;;;;;;38.10;18.77;;;;;;;;;;5070332;28;20610;-60
2021/10/17 08:42:19;;;;;;;42.53;21.52;;;;;;;;;;5069116;28;20107;-59
2021/10/17 08:44:45;;;;;;;62.22;25.10;;;;;;;;;;5070613;28;20115;-58
2021/10/17 08:47:13;;;;;;;40.45;21.35;;;;;;;;;;5067467;28;20028;-58
2021/10/17 08:49:41;;;;;;;35.05;17.73;;;;;;;;;;5068145;28;20028;-59
2021/10/17 08:52:10;;;;;;;33.47;16.92;;;;;;;;;;5069636;28;20073;-59
2021/10/17 08:54:39;;;;;;;61.13;26.35;;;;;;;;;;5069779;28;20388;-59
2021/10/17 08:57:04;;;;;;;79.40;33.77;;;;;;;;;;5069446;28;20056;-59
2021/10/17 08:59:30;;;;;;;88.18;31.90;;;;;;;;;;5067532;28;20071;-59
2021/10/17 09:01:56;;;;;;;38.47;20.65;;;;;;;;;;5071608;28;20238;-58
2021/10/17 09:04:30;;;;;;;34.22;18.23;;;;;;;;;;5071662;28;20028;-59
2021/10/17 09:06:56;;;;;;;31.48;17.33;;;;;;;;;;5067216;28;20122;-59
2021/10/17 09:09:21;;;;;;;28.08;16.05;;;;;;;;;;5067777;28;20088;-59
2021/10/17 09:11:48;;;;;;;46.75;23.95;;;;;;;;;;5070400;28;20077;-60
2021/10/17 09:14:13;;;;;;;48.22;24.95;;;;;;;;;;5070062;28;20074;-59
2021/10/17 09:16:41;;;;;;;45.55;22.98;;;;;;;;;;5069159;28;20032;-59
2021/10/17 09:19:24;;;;;;;39.35;21.33;;;;;;;;;;5069915;28;20040;-59
2021/10/17 09:22:10;;;;;;;40.30;22.27;;;;;;;;;;5070544;28;20020;-60
2021/10/17 09:24:40;;;;;;;94.70;33.15;;;;;;;;;;5069232;28;20025;-60
2021/10/17 09:27:21;;;;;;;63.63;26.92;;;;;;;;;;5068820;28;20479;-59
2021/10/17 09:29:55;;;;;;;54.53;23.05;;;;;;;;;;5068065;28;20040;-59
2021/10/17 09:32:26;;;;;;;33.15;18.20;;;;;;;;;;5070968;28;20105;-59
2021/10/17 09:34:52;;;;;;;31.17;17.05;;;;;;;;;;5072945;28;20592;-59
2021/10/17 09:37:17;;;;;;;27.88;16.50;;;;;;;;;;5066659;28;20032;-59
2021/10/17 09:39:51;;;;;;;33.47;19.95;;;;;;;;;;5069420;28;20543;-58
2021/10/17 09:42:21;;;;;;;34.30;18.42;;;;;;;;;;5069979;28;20621;-59
2021/10/17 09:44:47;;;;;;;27.00;17.17;;;;;;;;;;5069034;28;20226;-59
2021/10/17 09:47:13;;;;;;;28.23;16.60;;;;;;;;;;5070755;28;20145;-59
2021/10/17 09:49:39;;;;;;;24.58;15.88;;;;;;;;;;5071942;28;20127;-59
2021/10/17 09:52:13;;;;;;;24.65;15.73;;;;;;;;;;5067127;28;20497;-59
2021/10/17 09:54:39;;;;;;;25.90;15.23;;;;;;;;;;5081546;28;20147;-59
2021/10/17 09:57:07;;;;;;;28.48;16.60;;;;;;;;;;5068887;28;20481;-59
2021/10/17 09:59:34;;;;;;;33.67;19.40;;;;;;;;;;5065612;28;20057;-58
2021/10/17 10:02:02;;;;;;;25.75;15.75;;;;;;;;;;5067430;28;20043;-59
2021/10/17 10:04:28;;;;;;;24.67;15.10;;;;;;;;;;5066768;28;20518;-58
2021/10/17 10:06:54;;;;;;;23.05;14.55;;;;;;;;;;5070951;28;20024;-59
2021/10/17 10:09:21;;;;;;;27.27;17.77;;;;;;;;;;5067717;28;20382;-59
2021/10/17 10:11:49;;;;;;;26.52;16.50;;;;;;;;;;5067644;28;20028;-59
2021/10/17 10:14:15;;;;;;;26.58;16.15;;;;;;;;;;5067047;28;20048;-59
2021/10/17 10:16:41;;;;;;;22.35;14.80;;;;;;;;;;5066780;28;20494;-59
2021/10/17 10:19:13;;;;;;;25.85;16.17;;;;;;;;;;5068855;28;20050;-59
2021/10/17 10:21:39;;;;;;;29.90;17.23;;;;;;;;;;5062704;28;20039;-59
2021/10/17 10:24:12;;;;;;;23.52;15.40;;;;;;;;;;5068631;28;20020;-59
2021/10/17 10:26:41;;;;;;;27.85;18.17;;;;;;;;;;5067583;28;20099;-59
2021/10/17 10:29:07;;;;;;;22.40;15.10;;;;;;;;;;5066455;28;20486;-58
2021/10/17 10:31:50;;;;;;;23.60;15.63;;;;;;;;;;5069028;28;20047;-59
2021/10/17 10:34:22;;;;;;;22.60;15.60;;;;;;;;;;5070989;28;20533;-60
2021/10/17 10:36:52;;;;;;;23.83;14.52;;;;;;;;;;5065727;28;20544;-60
2021/10/17 10:39:44;;;;;;;23.08;15.70;;;;;;;;;;5070950;28;20034;-60
2021/10/17 10:42:18;;;;;;;21.33;14.63;;;;;;;;;;5067579;28;20070;-60
2021/10/17 10:44:44;;;;;;;23.38;15.20;;;;;;;;;;5067081;28;20418;-60
2021/10/17 10:47:28;;;;;;;24.52;15.98;;;;;;;;;;5067469;28;20085;-60
2021/10/17 10:49:55;;;;;;;23.52;14.82;;;;;;;;;;5067816;28;20039;-60
2021/10/17 10:52:24;;;;;;;19.92;13.82;;;;;;;;;;5068275;28;20024;-60
2021/10/17 10:55:03;;;;;;;20.90;13.13;;;;;;;;;;5068068;28;20121;-60
2021/10/17 10:57:37;;;;;;;20.45;13.02;;;;;;;;;;5066596;28;20094;-60
2021/10/17 11:00:16;;;;;;;21.40;14.00;;;;;;;;;;5072201;28;20020;-60
2021/10/17 11:03:13;;;;;;;18.13;12.13;;;;;;;;;;5066714;28;20111;-60
2021/10/17 11:05:39;;;;;;;19.17;13.93;;;;;;;;;;5069446;28;20075;-60
2021/10/17 11:08:13;;;;;;;22.38;15.07;;;;;;;;;;5063962;28;20407;-60
2021/10/17 11:10:39;;;;;;;20.52;13.93;;;;;;;;;;5069204;28;20029;-60
2021/10/17 11:13:07;;;;;;;19.95;13.32;;;;;;;;;;5065404;28;20025;-60
2021/10/17 11:15:39;;;;;;;18.88;13.80;;;;;;;;;;5068701;28;20048;-60
2021/10/17 11:18:10;;;;;;;20.00;13.75;;;;;;;;;;5067272;28;20040;-60
2021/10/17 11:20:43;;;;;;;18.80;13.30;;;;;;;;;;5068974;28;20170;-58
2021/10/17 11:23:16;;;;;;;17.60;13.07;;;;;;;;;;5068015;28;20107;-59
2021/10/17 11:25:51;;;;;;;23.52;15.90;;;;;;;;;;5065996;28;20020;-59
2021/10/17 11:28:16;;;;;;;17.77;13.57;;;;;;;;;;5066478;28;20077;-59
2021/10/17 11:30:43;;;;;;;17.73;12.88;;;;;;;;;;5071046;28;20032;-59
2021/10/17 11:33:23;;;;;;;18.98;13.85;;;;;;;;;;5070472;28;20058;-59
2021/10/17 11:35:49;;;;;;;16.30;13.15;;;;;;;;;;5072206;28;20037;-59
2021/10/17 11:38:16;;;;;;;20.75;14.10;;;;;;;;;;5068514;28;20395;-59
2021/10/17 11:40:42;;;;;;;16.92;12.23;;;;;;;;;;5070182;28;20124;-59
2021/10/17 11:43:08;;;;;;;18.38;13.38;;;;;;;;;;5073676;28;20028;-59
2021/10/17 11:45:42;;;;;;;16.40;12.55;;;;;;;;;;5070472;28;20474;-60
2021/10/17 11:48:20;;;;;;;17.42;12.13;;;;;;;;;;5070411;28;20029;-60
2021/10/17 11:50:48;;;;;;;13.95;11.45;;;;;;;;;;5069882;28;20020;-59
2021/10/17 11:53:16;;;;;;;17.20;12.20;;;;;;;;;;5072230;28;20103;-59
2021/10/17 11:55:42;;;;;;;16.38;12.88;;;;;;;;;;5068567;28;20115;-59
2021/10/17 11:58:22;;;;;;;15.40;11.70;;;;;;;;;;5069941;28;20029;-59
2021/10/17 12:00:53;;;;;;;17.50;12.63;;;;;;;;;;5076097;28;20027;-59
2021/10/17 12:03:20;;;;;;;18.70;13.30;;;;;;;;;;5070626;28;20118;-59
2021/10/17 12:05:47;;;;;;;19.08;12.18;;;;;;;;;;5069779;28;20138;-59
2021/10/17 12:08:22;;;;;;;16.08;12.32;;;;;;;;;;5069069;28;20027;-58
2021/10/17 12:11:17;;;;;;;16.17;12.85;;;;;;;;;;5075488;28;20024;-59
2021/10/17 12:13:46;;;;;;;15.88;12.20;;;;;;;;;;5061128;28;20033;-59
2021/10/17 12:16:11;;;;;;;16.73;12.32;;;;;;;;;;5069426;28;20374;-59
2021/10/17 12:18:46;;;;;;;17.85;12.60;;;;;;;;;;5069097;28;20024;-59
2021/10/17 12:21:12;;;;;;;18.15;13.30;;;;;;;;;;5070731;28;20367;-59
2021/10/17 12:23:39;;;;;;;16.80;12.25;;;;;;;;;;5073313;28;20574;-59
2021/10/17 12:26:06;;;;;;;18.48;13.02;;;;;;;;;;5070137;28;20461;-60
2021/10/17 12:28:31;;;;;;;18.77;12.18;;;;;;;;;;5075933;28;20036;-60
2021/10/17 12:31:00;;;;;;;15.45;11.43;;;;;;;;;;5070762;28;20097;-60
2021/10/17 12:33:35;;;;;;;15.30;11.63;;;;;;;;;;5069031;28;20435;-60
2021/10/17 12:36:02;;;;;;;17.30;11.23;;;;;;;;;;5070936;28;20036;-60
2021/10/17 12:38:30;;;;;;;17.63;11.10;;;;;;;;;;5069200;28;20051;-60
2021/10/17 12:41:05;;;;;;;28.70;17.08;;;;;;;;;;5069257;28;20391;-60
2021/10/17 12:43:41;;;;;;;17.15;11.77;;;;;;;;;;5069931;28;20143;-60
2021/10/17 12:46:20;;;;;;;17.90;12.48;;;;;;;;;;5068538;28;20032;-60
2021/10/17 12:48:49;;;;;;;20.30;12.63;;;;;;;;;;5071473;28;20486;-60
2021/10/17 12:51:24;;;;;;;17.65;12.07;;;;;;;;;;5069218;28;20362;-60
2021/10/17 12:54:08;;;;;;;16.70;11.93;;;;;;;;;;5068612;28;20028;-60
2021/10/17 12:56:37;;;;;;;15.63;11.15;;;;;;;;;;5069248;28;20024;-60
2021/10/17 12:59:14;;;;;;;21.02;12.95;;;;;;;;;;5069464;28;20024;-60
2021/10/17 13:02:06;;;;;;;17.75;13.13;;;;;;;;;;5069779;28;20040;-59
2021/10/17 13:04:49;;;;;;;17.73;12.40;;;;;;;;;;5074513;28;20032;-59
2021/10/17 13:07:29;;;;;;;21.17;14.93;;;;;;;;;;5064708;28;20028;-60
2021/10/17 13:10:06;;;;;;;20.75;13.65;;;;;;;;;;5070839;28;20028;-60
2021/10/17 13:12:38;;;;;;;22.02;14.13;;;;;;;;;;5073863;28;20028;-60
2021/10/17 13:15:05;;;;;;;19.25;13.65;;;;;;;;;;5068161;28;20032;-60
2021/10/17 13:17:33;;;;;;;20.42;15.35;;;;;;;;;;5069725;28;20063;-60
2021/10/17 13:19:58;;;;;;;25.27;14.73;;;;;;;;;;5069185;28;20152;-60
2021/10/17 13:22:25;;;;;;;23.23;16.40;;;;;;;;;;5069609;28;20398;-60
2021/10/17 13:24:51;;;;;;;22.25;15.95;;;;;;;;;;5069650;28;20020;-59
2021/10/17 13:27:16;;;;;;;23.85;16.75;;;;;;;;;;5070243;28;20118;-60
2021/10/17 13:29:42;;;;;;;24.08;17.23;;;;;;;;;;5067962;28;20061;-60
2021/10/17 13:32:08;;;;;;;22.60;16.17;;;;;;;;;;5072899;28;20066;-60
2021/10/17 13:34:33;;;;;;;22.02;15.32;;;;;;;;;;5066474;28;20016;-60
2021/10/17 13:36:59;;;;;;;21.27;15.13;;;;;;;;;;5067851;28;20021;-60
2021/10/17 13:39:25;;;;;;;25.33;16.27;;;;;;;;;;5069490;28;20032;-60
2021/10/17 13:41:50;;;;;;;23.85;16.60;;;;;;;;;;5071276;28;20051;-59
2021/10/17 13:44:16;;;;;;;27.23;19.25;;;;;;;;;;5070001;28;20020;-60
2021/10/17 13:46:41;;;;;;;24.30;16.23;;;;;;;;;;5068082;28;20029;-59
2021/10/17 13:49:07;;;;;;;26.13;19.63;;;;;;;;;;5068202;28;20215;-59
2021/10/17 13:51:32;;;;;;;28.85;17.13;;;;;;;;;;5067296;28;20487;-59
2021/10/17 13:53:59;;;;;;;26.88;19.40;;;;;;;;;;5068864;28;20042;-60
2021/10/17 13:56:24;;;;;;;26.70;18.73;;;;;;;;;;5067984;28;20192;-59
2021/10/17 13:58:50;;;;;;;26.75;18.10;;;;;;;;;;5068151;28;20119;-59
2021/10/17 14:01:16;;;;;;;26.35;18.25;;;;;;;;;;5067105;28;20398;-59
2021/10/17 14:03:42;;;;;;;23.63;16.60;;;;;;;;;;5069137;28;20048;-59
2021/10/17 14:06:08;;;;;;;28.75;19.27;;;;;;;;;;5069144;28;20079;-59
2021/10/17 14:08:33;;;;;;;25.30;18.65;;;;;;;;;;5065269;28;20498;-59
2021/10/17 14:11:00;;;;;;;24.75;15.85;;;;;;;;;;5069909;28;20110;-60
2021/10/17 14:13:26;;;;;;;24.63;17.83;;;;;;;;;;5070866;28;20210;-59
2021/10/17 14:15:51;;;;;;;27.98;18.00;;;;;;;;;;5069270;28;20037;-59
2021/10/17 14:18:17;;;;;;;28.15;19.25;;;;;;;;;;5065343;28;20024;-60